Wabush Airport

Airport
ICAO code: 
CYWK
IATA Code: 
YWK
Summary
ICAO Region: 
NAM
Territory: 
Location: 
Wabush, Labrador
Serving: 
Wabush
Elevation: 
1808 ft
Coordinates: 
Aerial View: 
52° 55' 18.984" N, 66° 51' 51.984" W
Metar
Observation
CYWK 271141Z 02003KT 2 1/2SM -RADZ BR OVC015 00/00 A2914 RMK ST8 SLP893
Station
Wabush Lake, Nfld.
Date/Time
2021-11-27 11:41:00
Wind direction
20°
Wind speed
03 kts
Lowest cloud amount
overcast
Temperature
0°C
Dew point
0°C
Humidity
100%
Weather condition

Description

Newfoundland and Labrador is home to a variety of climates and weather. One of the main reasons for this diversity is the geography of the province. The island portion of the province spans 5 degrees of latitude, which is comparable to that of the Great Lakes. The province has been divided into six climate types, but in broader terms Newfoundland has a cool summer subtype of a humid continental climate, which is greatly influenced by the sea since no part of the island is more than 100 km from the ocean. Northern Labrador is classified as a polar tundra climate, southern Labrador has a subarctic climate.

Climatology

Subarctic climate (Köppen climate classification Dfc) - long, usually very cold winters, and short, cool to mild summers.

Runways

Designator Length Width Surface Rops
18/36 1829 46 ASP No/No
Airport map: 
Aerial View: 

SKYbrary Partners:

Safety knowledge contributed by: